sensor_id;sensor_type;location;lat;lon;timestamp;P1;durP1;ratioP1;P2;durP2;ratioP2
22425;SDS011;11380;50.822;15.790;2023-08-31T00:00:09;60.23;;;52.63;;
22425;SDS011;11380;50.822;15.790;2023-08-31T00:05:19;61.13;;;53.00;;
22425;SDS011;11380;50.822;15.790;2023-08-31T00:10:26;58.90;;;52.40;;
22425;SDS011;11380;50.822;15.790;2023-08-31T00:15:34;59.93;;;52.83;;
22425;SDS011;11380;50.822;15.790;2023-08-31T00:20:40;60.00;;;53.40;;
22425;SDS011;11380;50.822;15.790;2023-08-31T00:25:47;59.70;;;53.07;;
22425;SDS011;11380;50.822;15.790;2023-08-31T00:30:56;61.83;;;53.83;;
22425;SDS011;11380;50.822;15.790;2023-08-31T00:36:10;61.80;;;53.70;;
22425;SDS011;11380;50.822;15.790;2023-08-31T00:41:17;60.10;;;53.50;;
22425;SDS011;11380;50.822;15.790;2023-08-31T00:46:24;59.75;;;53.25;;
22425;SDS011;11380;50.822;15.790;2023-08-31T00:51:32;59.27;;;52.90;;
22425;SDS011;11380;50.822;15.790;2023-08-31T00:56:39;60.23;;;53.63;;
22425;SDS011;11380;50.822;15.790;2023-08-31T01:01:55;60.73;;;53.50;;
22425;SDS011;11380;50.822;15.790;2023-08-31T01:07:34;59.43;;;52.90;;
22425;SDS011;11380;50.822;15.790;2023-08-31T01:13:00;63.03;;;53.97;;
22425;SDS011;11380;50.822;15.790;2023-08-31T01:18:18;61.30;;;53.53;;
22425;SDS011;11380;50.822;15.790;2023-08-31T01:28:58;59.63;;;53.10;;
22425;SDS011;11380;50.822;15.790;2023-08-31T01:34:05;59.37;;;52.90;;
22425;SDS011;11380;50.822;15.790;2023-08-31T01:39:15;59.83;;;53.30;;
22425;SDS011;11380;50.822;15.790;2023-08-31T01:44:30;60.34;;;53.74;;
22425;SDS011;11380;50.822;15.790;2023-08-31T01:49:40;61.87;;;53.20;;
22425;SDS011;11380;50.822;15.790;2023-08-31T01:54:47;60.10;;;53.40;;
22425;SDS011;11380;50.822;15.790;2023-08-31T01:59:54;59.53;;;53.00;;
22425;SDS011;11380;50.822;15.790;2023-08-31T02:05:01;60.35;;;53.78;;
22425;SDS011;11380;50.822;15.790;2023-08-31T02:10:08;59.53;;;53.08;;
22425;SDS011;11380;50.822;15.790;2023-08-31T02:15:15;59.73;;;53.27;;
22425;SDS011;11380;50.822;15.790;2023-08-31T02:20:22;60.25;;;53.23;;
22425;SDS011;11380;50.822;15.790;2023-08-31T02:25:30;59.93;;;53.23;;
22425;SDS011;11380;50.822;15.790;2023-08-31T02:30:37;59.70;;;53.20;;
22425;SDS011;11380;50.822;15.790;2023-08-31T02:40:50;59.92;;;53.38;;
22425;SDS011;11380;50.822;15.790;2023-08-31T02:46:01;61.13;;;53.33;;
22425;SDS011;11380;50.822;15.790;2023-08-31T02:51:09;59.20;;;52.73;;
22425;SDS011;11380;50.822;15.790;2023-08-31T02:56:15;60.07;;;53.47;;
22425;SDS011;11380;50.822;15.790;2023-08-31T03:01:23;60.23;;;53.63;;
22425;SDS011;11380;50.822;15.790;2023-08-31T03:06:31;59.80;;;52.85;;
22425;SDS011;11380;50.822;15.790;2023-08-31T03:11:41;59.50;;;53.00;;
22425;SDS011;11380;50.822;15.790;2023-08-31T03:16:49;60.70;;;53.20;;
22425;SDS011;11380;50.822;15.790;2023-08-31T03:21:55;59.63;;;53.10;;
22425;SDS011;11380;50.822;15.790;2023-08-31T03:27:02;59.67;;;52.55;;
22425;SDS011;11380;50.822;15.790;2023-08-31T03:32:10;59.30;;;52.83;;
22425;SDS011;11380;50.822;15.790;2023-08-31T03:42:24;58.50;;;52.10;;
22425;SDS011;11380;50.822;15.790;2023-08-31T03:47:30;59.83;;;53.17;;
22425;SDS011;11380;50.822;15.790;2023-08-31T03:52:37;60.07;;;52.77;;
22425;SDS011;11380;50.822;15.790;2023-08-31T04:02:51;60.00;;;53.48;;
22425;SDS011;11380;50.822;15.790;2023-08-31T04:08:02;58.63;;;52.25;;
22425;SDS011;11380;50.822;15.790;2023-08-31T04:13:09;59.15;;;52.65;;
22425;SDS011;11380;50.822;15.790;2023-08-31T04:18:17;59.47;;;52.80;;
22425;SDS011;11380;50.822;15.790;2023-08-31T04:23:24;59.60;;;53.10;;
22425;SDS011;11380;50.822;15.790;2023-08-31T04:28:31;60.00;;;52.60;;
22425;SDS011;11380;50.822;15.790;2023-08-31T04:33:38;58.80;;;52.40;;
22425;SDS011;11380;50.822;15.790;2023-08-31T04:38:45;60.53;;;53.17;;
22425;SDS011;11380;50.822;15.790;2023-08-31T04:43:53;58.80;;;52.47;;
22425;SDS011;11380;50.822;15.790;2023-08-31T04:48:59;60.23;;;53.68;;
22425;SDS011;11380;50.822;15.790;2023-08-31T04:54:08;66.97;;;56.93;;
22425;SDS011;11380;50.822;15.790;2023-08-31T04:59:16;59.03;;;52.63;;
22425;SDS011;11380;50.822;15.790;2023-08-31T05:04:24;60.63;;;53.23;;
22425;SDS011;11380;50.822;15.790;2023-08-31T05:09:32;60.97;;;53.83;;
22425;SDS011;11380;50.822;15.790;2023-08-31T05:14:39;63.13;;;54.57;;
22425;SDS011;11380;50.822;15.790;2023-08-31T05:19:45;60.38;;;53.80;;
22425;SDS011;11380;50.822;15.790;2023-08-31T05:24:52;63.00;;;54.13;;
22425;SDS011;11380;50.822;15.790;2023-08-31T05:29:59;61.08;;;54.40;;
22425;SDS011;11380;50.822;15.790;2023-08-31T05:35:05;63.30;;;54.65;;
22425;SDS011;11380;50.822;15.790;2023-08-31T05:40:13;61.03;;;54.17;;
22425;SDS011;11380;50.822;15.790;2023-08-31T05:45:21;63.30;;;54.80;;
22425;SDS011;11380;50.822;15.790;2023-08-31T05:50:29;65.20;;;56.07;;
22425;SDS011;11380;50.822;15.790;2023-08-31T05:55:37;65.07;;;56.27;;
22425;SDS011;11380;50.822;15.790;2023-08-31T06:05:49;68.02;;;56.28;;
22425;SDS011;11380;50.822;15.790;2023-08-31T06:10:56;65.87;;;57.03;;
22425;SDS011;11380;50.822;15.790;2023-08-31T06:16:03;65.10;;;56.15;;
22425;SDS011;11380;50.822;15.790;2023-08-31T06:21:10;65.47;;;56.97;;
22425;SDS011;11380;50.822;15.790;2023-08-31T06:26:17;67.93;;;55.53;;
22425;SDS011;11380;50.822;15.790;2023-08-31T06:31:24;62.63;;;54.23;;
22425;SDS011;11380;50.822;15.790;2023-08-31T06:36:30;61.83;;;52.90;;
22425;SDS011;11380;50.822;15.790;2023-08-31T06:41:37;61.07;;;53.67;;
22425;SDS011;11380;50.822;15.790;2023-08-31T06:46:44;63.00;;;55.00;;
22425;SDS011;11380;50.822;15.790;2023-08-31T06:51:52;62.48;;;54.75;;
22425;SDS011;11380;50.822;15.790;2023-08-31T06:56:59;63.45;;;54.98;;
22425;SDS011;11380;50.822;15.790;2023-08-31T07:02:07;67.82;;;56.40;;
22425;SDS011;11380;50.822;15.790;2023-08-31T07:07:13;65.78;;;55.92;;
22425;SDS011;11380;50.822;15.790;2023-08-31T07:12:20;64.50;;;55.17;;
22425;SDS011;11380;50.822;15.790;2023-08-31T07:17:27;66.17;;;55.57;;
22425;SDS011;11380;50.822;15.790;2023-08-31T07:22:34;65.28;;;55.95;;
22425;SDS011;11380;50.822;15.790;2023-08-31T07:27:40;65.50;;;56.02;;
22425;SDS011;11380;50.822;15.790;2023-08-31T07:32:47;64.93;;;55.60;;
22425;SDS011;11380;50.822;15.790;2023-08-31T07:37:54;66.00;;;57.00;;
22425;SDS011;11380;50.822;15.790;2023-08-31T07:48:07;67.63;;;57.53;;
22425;SDS011;11380;50.822;15.790;2023-08-31T07:53:13;67.50;;;56.97;;
22425;SDS011;11380;50.822;15.790;2023-08-31T07:58:22;74.33;;;60.20;;
22425;SDS011;11380;50.822;15.790;2023-08-31T08:03:31;107.50;;;75.37;;
22425;SDS011;11380;50.822;15.790;2023-08-31T08:08:37;73.13;;;60.57;;
22425;SDS011;11380;50.822;15.790;2023-08-31T08:13:44;64.73;;;54.67;;
22425;SDS011;11380;50.822;15.790;2023-08-31T08:18:51;65.90;;;56.25;;
22425;SDS011;11380;50.822;15.790;2023-08-31T08:23:58;65.30;;;54.27;;
22425;SDS011;11380;50.822;15.790;2023-08-31T08:29:05;61.90;;;53.30;;
22425;SDS011;11380;50.822;15.790;2023-08-31T08:34:12;61.73;;;53.00;;
22425;SDS011;11380;50.822;15.790;2023-08-31T08:39:18;61.47;;;52.80;;
22425;SDS011;11380;50.822;15.790;2023-08-31T08:44:26;59.30;;;51.80;;
22425;SDS011;11380;50.822;15.790;2023-08-31T08:49:37;59.67;;;52.07;;
22425;SDS011;11380;50.822;15.790;2023-08-31T08:54:44;60.37;;;52.37;;
22425;SDS011;11380;50.822;15.790;2023-08-31T08:59:52;60.80;;;52.40;;
22425;SDS011;11380;50.822;15.790;2023-08-31T09:04:58;60.40;;;52.43;;
22425;SDS011;11380;50.822;15.790;2023-08-31T09:10:05;60.20;;;52.08;;
22425;SDS011;11380;50.822;15.790;2023-08-31T09:15:13;61.97;;;52.80;;
22425;SDS011;11380;50.822;15.790;2023-08-31T09:20:20;61.92;;;52.85;;
22425;SDS011;11380;50.822;15.790;2023-08-31T09:25:26;62.70;;;53.00;;
22425;SDS011;11380;50.822;15.790;2023-08-31T09:30:36;62.83;;;53.37;;
22425;SDS011;11380;50.822;15.790;2023-08-31T09:35:48;65.32;;;53.65;;
22425;SDS011;11380;50.822;15.790;2023-08-31T09:41:03;64.00;;;53.45;;
22425;SDS011;11380;50.822;15.790;2023-08-31T09:46:11;64.75;;;53.90;;
22425;SDS011;11380;50.822;15.790;2023-08-31T09:51:19;68.77;;;54.77;;
22425;SDS011;11380;50.822;15.790;2023-08-31T09:56:28;64.50;;;54.10;;
22425;SDS011;11380;50.822;15.790;2023-08-31T10:01:39;64.30;;;53.70;;
22425;SDS011;11380;50.822;15.790;2023-08-31T10:06:47;63.60;;;53.40;;
22425;SDS011;11380;50.822;15.790;2023-08-31T10:11:54;65.07;;;53.77;;
22425;SDS011;11380;50.822;15.790;2023-08-31T10:17:02;62.65;;;53.15;;
22425;SDS011;11380;50.822;15.790;2023-08-31T10:22:10;63.50;;;53.33;;
22425;SDS011;11380;50.822;15.790;2023-08-31T10:32:24;62.45;;;53.17;;
22425;SDS011;11380;50.822;15.790;2023-08-31T10:37:31;65.13;;;53.63;;
22425;SDS011;11380;50.822;15.790;2023-08-31T10:42:45;63.70;;;53.83;;
22425;SDS011;11380;50.822;15.790;2023-08-31T10:47:52;65.60;;;53.67;;
22425;SDS011;11380;50.822;15.790;2023-08-31T10:53:07;64.77;;;54.18;;
22425;SDS011;11380;50.822;15.790;2023-08-31T10:58:17;64.37;;;53.70;;
22425;SDS011;11380;50.822;15.790;2023-08-31T11:03:24;65.17;;;53.43;;
22425;SDS011;11380;50.822;15.790;2023-08-31T11:08:33;63.90;;;53.27;;
22425;SDS011;11380;50.822;15.790;2023-08-31T11:13:40;65.60;;;54.30;;
22425;SDS011;11380;50.822;15.790;2023-08-31T11:18:47;66.20;;;54.17;;
22425;SDS011;11380;50.822;15.790;2023-08-31T11:23:55;66.15;;;54.25;;
22425;SDS011;11380;50.822;15.790;2023-08-31T11:29:07;65.60;;;54.27;;
22425;SDS011;11380;50.822;15.790;2023-08-31T11:34:14;65.73;;;54.20;;
22425;SDS011;11380;50.822;15.790;2023-08-31T11:39:22;65.50;;;54.10;;
22425;SDS011;11380;50.822;15.790;2023-08-31T11:44:30;64.40;;;53.55;;
22425;SDS011;11380;50.822;15.790;2023-08-31T11:49:37;65.70;;;54.07;;
22425;SDS011;11380;50.822;15.790;2023-08-31T11:54:48;66.70;;;53.40;;
22425;SDS011;11380;50.822;15.790;2023-08-31T11:59:58;63.42;;;53.33;;
22425;SDS011;11380;50.822;15.790;2023-08-31T12:05:09;63.98;;;53.02;;
22425;SDS011;11380;50.822;15.790;2023-08-31T12:10:16;63.68;;;53.05;;
22425;SDS011;11380;50.822;15.790;2023-08-31T12:15:29;62.67;;;52.80;;
22425;SDS011;11380;50.822;15.790;2023-08-31T12:20:50;63.73;;;53.10;;
22425;SDS011;11380;50.822;15.790;2023-08-31T12:25:56;64.04;;;52.76;;
22425;SDS011;11380;50.822;15.790;2023-08-31T12:31:02;63.67;;;52.97;;
22425;SDS011;11380;50.822;15.790;2023-08-31T12:36:08;63.90;;;53.30;;
22425;SDS011;11380;50.822;15.790;2023-08-31T12:41:16;65.53;;;53.80;;
22425;SDS011;11380;50.822;15.790;2023-08-31T12:46:26;65.93;;;53.80;;
22425;SDS011;11380;50.822;15.790;2023-08-31T12:56:37;66.80;;;53.87;;
22425;SDS011;11380;50.822;15.790;2023-08-31T13:01:46;66.07;;;53.73;;
22425;SDS011;11380;50.822;15.790;2023-08-31T13:06:54;65.67;;;53.50;;
22425;SDS011;11380;50.822;15.790;2023-08-31T13:12:01;65.67;;;53.42;;
22425;SDS011;11380;50.822;15.790;2023-08-31T13:17:08;65.05;;;53.35;;
22425;SDS011;11380;50.822;15.790;2023-08-31T13:22:15;66.80;;;53.23;;
22425;SDS011;11380;50.822;15.790;2023-08-31T13:27:22;66.03;;;53.40;;
22425;SDS011;11380;50.822;15.790;2023-08-31T13:32:29;65.00;;;53.45;;
22425;SDS011;11380;50.822;15.790;2023-08-31T13:37:37;64.60;;;53.30;;
22425;SDS011;11380;50.822;15.790;2023-08-31T13:42:54;64.85;;;53.00;;
22425;SDS011;11380;50.822;15.790;2023-08-31T13:48:05;64.58;;;52.85;;
22425;SDS011;11380;50.822;15.790;2023-08-31T13:53:12;66.45;;;53.50;;
22425;SDS011;11380;50.822;15.790;2023-08-31T13:58:19;63.67;;;52.67;;
22425;SDS011;11380;50.822;15.790;2023-08-31T14:03:26;63.83;;;52.67;;
22425;SDS011;11380;50.822;15.790;2023-08-31T14:08:33;64.53;;;52.47;;
22425;SDS011;11380;50.822;15.790;2023-08-31T14:13:42;63.87;;;52.37;;
22425;SDS011;11380;50.822;15.790;2023-08-31T14:18:52;65.10;;;52.90;;
22425;SDS011;11380;50.822;15.790;2023-08-31T14:23:59;63.67;;;52.53;;
22425;SDS011;11380;50.822;15.790;2023-08-31T14:29:05;65.10;;;52.73;;
22425;SDS011;11380;50.822;15.790;2023-08-31T14:34:13;65.07;;;52.40;;
22425;SDS011;11380;50.822;15.790;2023-08-31T14:39:19;64.50;;;52.73;;
22425;SDS011;11380;50.822;15.790;2023-08-31T14:44:26;65.00;;;53.27;;
22425;SDS011;11380;50.822;15.790;2023-08-31T14:49:33;64.03;;;52.43;;
22425;SDS011;11380;50.822;15.790;2023-08-31T14:54:40;65.57;;;52.80;;
22425;SDS011;11380;50.822;15.790;2023-08-31T14:59:47;64.87;;;52.77;;
22425;SDS011;11380;50.822;15.790;2023-08-31T15:04:56;63.88;;;52.34;;
22425;SDS011;11380;50.822;15.790;2023-08-31T15:10:02;64.12;;;52.45;;
22425;SDS011;11380;50.822;15.790;2023-08-31T15:15:10;65.40;;;52.80;;
22425;SDS011;11380;50.822;15.790;2023-08-31T15:20:18;65.67;;;53.38;;
22425;SDS011;11380;50.822;15.790;2023-08-31T15:25:25;66.10;;;53.13;;
22425;SDS011;11380;50.822;15.790;2023-08-31T15:30:33;65.40;;;53.07;;
22425;SDS011;11380;50.822;15.790;2023-08-31T15:35:40;65.17;;;53.00;;
22425;SDS011;11380;50.822;15.790;2023-08-31T15:40:47;65.70;;;53.03;;
22425;SDS011;11380;50.822;15.790;2023-08-31T15:45:54;65.72;;;53.02;;
22425;SDS011;11380;50.822;15.790;2023-08-31T15:51:02;64.45;;;52.73;;
22425;SDS011;11380;50.822;15.790;2023-08-31T15:56:11;65.03;;;52.87;;
22425;SDS011;11380;50.822;15.790;2023-08-31T16:01:18;64.03;;;53.00;;
22425;SDS011;11380;50.822;15.790;2023-08-31T16:06:25;63.25;;;52.78;;
22425;SDS011;11380;50.822;15.790;2023-08-31T16:11:33;64.40;;;52.87;;
22425;SDS011;11380;50.822;15.790;2023-08-31T16:16:40;63.05;;;52.23;;
22425;SDS011;11380;50.822;15.790;2023-08-31T16:21:48;65.07;;;52.17;;
22425;SDS011;11380;50.822;15.790;2023-08-31T16:26:54;64.13;;;51.97;;
22425;SDS011;11380;50.822;15.790;2023-08-31T16:32:02;63.33;;;52.27;;
22425;SDS011;11380;50.822;15.790;2023-08-31T16:37:10;64.12;;;52.05;;
22425;SDS011;11380;50.822;15.790;2023-08-31T16:42:16;62.77;;;51.97;;
22425;SDS011;11380;50.822;15.790;2023-08-31T16:47:23;62.83;;;52.20;;
22425;SDS011;11380;50.822;15.790;2023-08-31T16:52:30;64.30;;;52.10;;
22425;SDS011;11380;50.822;15.790;2023-08-31T16:57:37;63.53;;;52.60;;
22425;SDS011;11380;50.822;15.790;2023-08-31T17:02:44;66.53;;;53.60;;
22425;SDS011;11380;50.822;15.790;2023-08-31T17:07:53;67.30;;;54.13;;
22425;SDS011;11380;50.822;15.790;2023-08-31T17:12:59;64.00;;;53.17;;
22425;SDS011;11380;50.822;15.790;2023-08-31T17:18:08;74.22;;;58.05;;
22425;SDS011;11380;50.822;15.790;2023-08-31T17:23:15;68.70;;;55.87;;
22425;SDS011;11380;50.822;15.790;2023-08-31T17:28:22;69.23;;;55.03;;
22425;SDS011;11380;50.822;15.790;2023-08-31T17:33:29;67.43;;;54.70;;
22425;SDS011;11380;50.822;15.790;2023-08-31T17:38:37;65.23;;;53.93;;
22425;SDS011;11380;50.822;15.790;2023-08-31T17:43:45;62.80;;;53.40;;
22425;SDS011;11380;50.822;15.790;2023-08-31T17:48:52;65.37;;;52.67;;
22425;SDS011;11380;50.822;15.790;2023-08-31T17:53:59;64.10;;;54.42;;
22425;SDS011;11380;50.822;15.790;2023-08-31T17:59:12;63.63;;;53.40;;
22425;SDS011;11380;50.822;15.790;2023-08-31T18:04:20;62.57;;;53.13;;
22425;SDS011;11380;50.822;15.790;2023-08-31T18:09:31;62.67;;;53.30;;
22425;SDS011;11380;50.822;15.790;2023-08-31T18:14:43;61.87;;;52.30;;
22425;SDS011;11380;50.822;15.790;2023-08-31T18:19:52;61.25;;;51.85;;
22425;SDS011;11380;50.822;15.790;2023-08-31T18:24:59;63.13;;;52.10;;
22425;SDS011;11380;50.822;15.790;2023-08-31T18:30:07;61.92;;;52.35;;
22425;SDS011;11380;50.822;15.790;2023-08-31T18:35:14;59.83;;;51.70;;
22425;SDS011;11380;50.822;15.790;2023-08-31T18:40:22;61.10;;;52.43;;
22425;SDS011;11380;50.822;15.790;2023-08-31T18:45:29;59.87;;;51.67;;
22425;SDS011;11380;50.822;15.790;2023-08-31T18:50:35;61.20;;;52.55;;
22425;SDS011;11380;50.822;15.790;2023-08-31T18:55:42;60.73;;;52.30;;
22425;SDS011;11380;50.822;15.790;2023-08-31T19:05:56;60.15;;;51.83;;
22425;SDS011;11380;50.822;15.790;2023-08-31T19:11:07;57.75;;;51.00;;
22425;SDS011;11380;50.822;15.790;2023-08-31T19:16:16;60.47;;;51.33;;
22425;SDS011;11380;50.822;15.790;2023-08-31T19:21:23;59.47;;;51.10;;
22425;SDS011;11380;50.822;15.790;2023-08-31T19:26:31;60.13;;;51.40;;
22425;SDS011;11380;50.822;15.790;2023-08-31T19:31:39;59.27;;;51.27;;
22425;SDS011;11380;50.822;15.790;2023-08-31T19:36:47;58.97;;;52.00;;
22425;SDS011;11380;50.822;15.790;2023-08-31T19:41:58;59.97;;;51.87;;
22425;SDS011;11380;50.822;15.790;2023-08-31T19:47:04;59.43;;;51.60;;
22425;SDS011;11380;50.822;15.790;2023-08-31T19:52:12;62.07;;;52.50;;
22425;SDS011;11380;50.822;15.790;2023-08-31T19:57:20;60.33;;;52.27;;
22425;SDS011;11380;50.822;15.790;2023-08-31T20:02:27;59.33;;;51.90;;
22425;SDS011;11380;50.822;15.790;2023-08-31T20:07:34;58.73;;;51.57;;
22425;SDS011;11380;50.822;15.790;2023-08-31T20:12:41;60.50;;;52.17;;
22425;SDS011;11380;50.822;15.790;2023-08-31T20:17:48;59.90;;;51.90;;
22425;SDS011;11380;50.822;15.790;2023-08-31T20:22:56;57.94;;;50.84;;
22425;SDS011;11380;50.822;15.790;2023-08-31T20:33:10;57.48;;;51.18;;
22425;SDS011;11380;50.822;15.790;2023-08-31T20:38:17;58.17;;;51.23;;
22425;SDS011;11380;50.822;15.790;2023-08-31T20:43:24;57.33;;;50.93;;
22425;SDS011;11380;50.822;15.790;2023-08-31T20:48:32;59.03;;;51.57;;
22425;SDS011;11380;50.822;15.790;2023-08-31T20:53:39;60.10;;;51.20;;
22425;SDS011;11380;50.822;15.790;2023-08-31T20:58:46;57.00;;;50.80;;
22425;SDS011;11380;50.822;15.790;2023-08-31T21:03:54;59.20;;;51.23;;
22425;SDS011;11380;50.822;15.790;2023-08-31T21:09:03;57.17;;;50.88;;
22425;SDS011;11380;50.822;15.790;2023-08-31T21:14:11;62.13;;;53.33;;
22425;SDS011;11380;50.822;15.790;2023-08-31T21:19:18;65.10;;;53.43;;
22425;SDS011;11380;50.822;15.790;2023-08-31T21:24:25;59.18;;;52.03;;
22425;SDS011;11380;50.822;15.790;2023-08-31T21:29:32;57.53;;;51.23;;
22425;SDS011;11380;50.822;15.790;2023-08-31T21:34:38;58.17;;;51.15;;
22425;SDS011;11380;50.822;15.790;2023-08-31T21:39:46;56.87;;;50.67;;
22425;SDS011;11380;50.822;15.790;2023-08-31T21:44:54;60.20;;;51.97;;
22425;SDS011;11380;50.822;15.790;2023-08-31T21:50:03;61.00;;;52.30;;
22425;SDS011;11380;50.822;15.790;2023-08-31T21:55:11;58.55;;;51.73;;
22425;SDS011;11380;50.822;15.790;2023-08-31T22:00:20;60.03;;;52.27;;
22425;SDS011;11380;50.822;15.790;2023-08-31T22:05:27;57.90;;;51.33;;
22425;SDS011;11380;50.822;15.790;2023-08-31T22:10:37;61.57;;;52.30;;
22425;SDS011;11380;50.822;15.790;2023-08-31T22:15:45;60.33;;;52.53;;
22425;SDS011;11380;50.822;15.790;2023-08-31T22:20:54;57.92;;;51.10;;
22425;SDS011;11380;50.822;15.790;2023-08-31T22:26:01;59.10;;;51.98;;
22425;SDS011;11380;50.822;15.790;2023-08-31T22:31:09;56.08;;;49.98;;
22425;SDS011;11380;50.822;15.790;2023-08-31T22:36:18;56.60;;;50.40;;
22425;SDS011;11380;50.822;15.790;2023-08-31T22:41:26;55.13;;;49.20;;
22425;SDS011;11380;50.822;15.790;2023-08-31T22:46:32;55.40;;;49.50;;
22425;SDS011;11380;50.822;15.790;2023-08-31T22:51:40;55.37;;;49.43;;
22425;SDS011;11380;50.822;15.790;2023-08-31T22:56:46;55.37;;;49.37;;
22425;SDS011;11380;50.822;15.790;2023-08-31T23:01:53;55.23;;;49.38;;
22425;SDS011;11380;50.822;15.790;2023-08-31T23:07:00;55.03;;;49.13;;
22425;SDS011;11380;50.822;15.790;2023-08-31T23:12:08;57.03;;;49.70;;
22425;SDS011;11380;50.822;15.790;2023-08-31T23:17:14;55.10;;;49.20;;
22425;SDS011;11380;50.822;15.790;2023-08-31T23:22:21;55.20;;;49.33;;
22425;SDS011;11380;50.822;15.790;2023-08-31T23:27:28;55.87;;;49.70;;
22425;SDS011;11380;50.822;15.790;2023-08-31T23:32:35;55.67;;;49.60;;
22425;SDS011;11380;50.822;15.790;2023-08-31T23:37:42;54.73;;;48.98;;
22425;SDS011;11380;50.822;15.790;2023-08-31T23:42:49;55.00;;;49.17;;
22425;SDS011;11380;50.822;15.790;2023-08-31T23:47:56;55.40;;;49.44;;
22425;SDS011;11380;50.822;15.790;2023-08-31T23:53:03;56.93;;;50.83;;
22425;SDS011;11380;50.822;15.790;2023-08-31T23:58:10;56.80;;;50.77;;
